sensor_id;sensor_type;location;lat;lon;timestamp;temperature;humidity
71096;DHT22;58753;49.440;11.126;2023-06-10T00:02:15;14.08;81.06
71096;DHT22;58753;49.440;11.126;2023-06-10T00:04:42;14.08;81.12
71096;DHT22;58753;49.440;11.126;2023-06-10T00:07:08;14.05;81.01
71096;DHT22;58753;49.440;11.126;2023-06-10T00:09:37;14.02;81.23
71096;DHT22;58753;49.440;11.126;2023-06-10T00:12:04;14.01;81.36
71096;DHT22;58753;49.440;11.126;2023-06-10T00:14:30;14.00;81.32
71096;DHT22;58753;49.440;11.126;2023-06-10T00:16:55;13.91;81.42
71096;DHT22;58753;49.440;11.126;2023-06-10T00:19:23;13.88;81.32
71096;DHT22;58753;49.440;11.126;2023-06-10T00:21:51;13.82;81.61
71096;DHT22;58753;49.440;11.126;2023-06-10T00:24:18;13.82;82.04
71096;DHT22;58753;49.440;11.126;2023-06-10T00:26:43;13.80;82.04
71096;DHT22;58753;49.440;11.126;2023-06-10T00:29:08;13.84;82.21
71096;DHT22;58753;49.440;11.126;2023-06-10T00:31:34;13.78;82.06
71096;DHT22;58753;49.440;11.126;2023-06-10T00:34:01;13.78;82.18
71096;DHT22;58753;49.440;11.126;2023-06-10T00:36:26;13.74;82.14
71096;DHT22;58753;49.440;11.126;2023-06-10T00:38:52;13.70;82.20
71096;DHT22;58753;49.440;11.126;2023-06-10T00:41:17;13.64;82.16
71096;DHT22;58753;49.440;11.126;2023-06-10T00:43:43;13.58;82.34
71096;DHT22;58753;49.440;11.126;2023-06-10T00:46:09;13.57;82.45
71096;DHT22;58753;49.440;11.126;2023-06-10T00:48:35;13.56;82.43
71096;DHT22;58753;49.440;11.126;2023-06-10T00:51:00;13.50;82.32
71096;DHT22;58753;49.440;11.126;2023-06-10T00:53:26;13.46;82.80
71096;DHT22;58753;49.440;11.126;2023-06-10T00:55:52;13.44;83.13
71096;DHT22;58753;49.440;11.126;2023-06-10T00:58:18;13.43;83.06
71096;DHT22;58753;49.440;11.126;2023-06-10T01:00:43;13.42;83.13
71096;DHT22;58753;49.440;11.126;2023-06-10T01:03:10;13.39;83.01
71096;DHT22;58753;49.440;11.126;2023-06-10T01:05:38;13.39;83.43
71096;DHT22;58753;49.440;11.126;2023-06-10T01:10:53;13.28;83.36
71096;DHT22;58753;49.440;11.126;2023-06-10T01:13:22;13.30;83.45
71096;DHT22;58753;49.440;11.126;2023-06-10T01:15:49;13.30;83.51
71096;DHT22;58753;49.440;11.126;2023-06-10T01:18:15;13.24;83.60
71096;DHT22;58753;49.440;11.126;2023-06-10T01:20:42;13.26;83.74
71096;DHT22;58753;49.440;11.126;2023-06-10T01:23:12;13.26;83.96
71096;DHT22;58753;49.440;11.126;2023-06-10T01:25:39;13.20;83.68
71096;DHT22;58753;49.440;11.126;2023-06-10T01:31:09;13.10;83.59
71096;DHT22;58753;49.440;11.126;2023-06-10T01:33:42;13.12;83.96
71096;DHT22;58753;49.440;11.126;2023-06-10T01:36:08;13.07;83.88
71096;DHT22;58753;49.440;11.126;2023-06-10T01:38:39;13.06;84.08
71096;DHT22;58753;49.440;11.126;2023-06-10T01:41:06;13.00;83.85
71096;DHT22;58753;49.440;11.126;2023-06-10T01:43:37;12.97;83.86
71096;DHT22;58753;49.440;11.126;2023-06-10T01:46:02;12.92;84.11
71096;DHT22;58753;49.440;11.126;2023-06-10T01:48:28;12.92;84.31
71096;DHT22;58753;49.440;11.126;2023-06-10T01:50:53;12.92;84.28
71096;DHT22;58753;49.440;11.126;2023-06-10T01:53:21;12.93;84.38
71096;DHT22;58753;49.440;11.126;2023-06-10T01:55:46;12.96;84.57
71096;DHT22;58753;49.440;11.126;2023-06-10T01:58:11;12.99;84.39
71096;DHT22;58753;49.440;11.126;2023-06-10T02:00:37;12.99;84.26
71096;DHT22;58753;49.440;11.126;2023-06-10T02:03:02;12.99;84.48
71096;DHT22;58753;49.440;11.126;2023-06-10T02:05:27;13.00;84.44
71096;DHT22;58753;49.440;11.126;2023-06-10T02:07:53;12.96;84.38
71096;DHT22;58753;49.440;11.126;2023-06-10T02:10:18;12.96;84.33
71096;DHT22;58753;49.440;11.126;2023-06-10T02:12:43;12.92;84.15
71096;DHT22;58753;49.440;11.126;2023-06-10T02:15:09;12.89;84.28
71096;DHT22;58753;49.440;11.126;2023-06-10T02:17:34;12.88;84.43
71096;DHT22;58753;49.440;11.126;2023-06-10T02:19:59;12.88;84.51
71096;DHT22;58753;49.440;11.126;2023-06-10T02:22:31;12.85;84.45
71096;DHT22;58753;49.440;11.126;2023-06-10T02:24:56;12.79;84.25
71096;DHT22;58753;49.440;11.126;2023-06-10T02:27:22;12.78;84.62
71096;DHT22;58753;49.440;11.126;2023-06-10T02:29:47;12.69;84.38
71096;DHT22;58753;49.440;11.126;2023-06-10T02:32:13;12.63;84.63
71096;DHT22;58753;49.440;11.126;2023-06-10T02:34:38;12.59;84.67
71096;DHT22;58753;49.440;11.126;2023-06-10T02:37:04;12.59;84.84
71096;DHT22;58753;49.440;11.126;2023-06-10T02:39:29;12.58;84.98
71096;DHT22;58753;49.440;11.126;2023-06-10T02:41:54;12.59;85.08
71096;DHT22;58753;49.440;11.126;2023-06-10T02:44:20;12.59;85.15
71096;DHT22;58753;49.440;11.126;2023-06-10T02:46:45;12.58;85.08
71096;DHT22;58753;49.440;11.126;2023-06-10T02:49:11;12.59;85.14
71096;DHT22;58753;49.440;11.126;2023-06-10T02:51:37;12.58;85.21
71096;DHT22;58753;49.440;11.126;2023-06-10T02:54:02;12.54;85.00
71096;DHT22;58753;49.440;11.126;2023-06-10T02:56:27;12.54;85.12
71096;DHT22;58753;49.440;11.126;2023-06-10T02:58:53;12.51;85.09
71096;DHT22;58753;49.440;11.126;2023-06-10T03:01:18;12.54;85.14
71096;DHT22;58753;49.440;11.126;2023-06-10T03:03:44;12.51;85.26
71096;DHT22;58753;49.440;11.126;2023-06-10T03:06:12;12.48;85.22
71096;DHT22;58753;49.440;11.126;2023-06-10T03:08:38;12.49;85.14
71096;DHT22;58753;49.440;11.126;2023-06-10T03:11:03;12.44;85.13
71096;DHT22;58753;49.440;11.126;2023-06-10T03:13:29;12.46;85.24
71096;DHT22;58753;49.440;11.126;2023-06-10T03:15:54;12.48;85.37
71096;DHT22;58753;49.440;11.126;2023-06-10T03:18:20;12.51;85.57
71096;DHT22;58753;49.440;11.126;2023-06-10T03:20:45;12.54;85.46
71096;DHT22;58753;49.440;11.126;2023-06-10T03:23:11;12.58;85.58
71096;DHT22;58753;49.440;11.126;2023-06-10T03:25:36;12.52;85.50
71096;DHT22;58753;49.440;11.126;2023-06-10T03:28:02;12.58;85.54
71096;DHT22;58753;49.440;11.126;2023-06-10T03:30:27;12.62;85.65
71096;DHT22;58753;49.440;11.126;2023-06-10T03:32:53;12.69;85.61
71096;DHT22;58753;49.440;11.126;2023-06-10T03:35:18;12.72;85.58
71096;DHT22;58753;49.440;11.126;2023-06-10T03:37:44;12.79;85.71
71096;DHT22;58753;49.440;11.126;2023-06-10T03:40:09;12.91;85.72
71096;DHT22;58753;49.440;11.126;2023-06-10T03:42:35;12.93;85.49
71096;DHT22;58753;49.440;11.126;2023-06-10T03:45:01;12.99;85.40
71096;DHT22;58753;49.440;11.126;2023-06-10T03:47:26;12.97;85.35
71096;DHT22;58753;49.440;11.126;2023-06-10T03:49:51;13.00;85.31
71096;DHT22;58753;49.440;11.126;2023-06-10T03:52:18;13.05;85.32
71096;DHT22;58753;49.440;11.126;2023-06-10T03:54:43;13.03;85.52
71096;DHT22;58753;49.440;11.126;2023-06-10T03:57:08;13.06;85.46
71096;DHT22;58753;49.440;11.126;2023-06-10T03:59:34;13.06;85.44
71096;DHT22;58753;49.440;11.126;2023-06-10T04:02:00;13.06;85.28
71096;DHT22;58753;49.440;11.126;2023-06-10T04:04:26;13.06;85.32
71096;DHT22;58753;49.440;11.126;2023-06-10T04:06:51;13.07;85.40
71096;DHT22;58753;49.440;11.126;2023-06-10T04:09:17;13.12;85.32
71096;DHT22;58753;49.440;11.126;2023-06-10T04:11:42;13.12;85.22
71096;DHT22;58753;49.440;11.126;2023-06-10T04:14:08;13.12;85.14
71096;DHT22;58753;49.440;11.126;2023-06-10T04:16:33;13.10;85.01
71096;DHT22;58753;49.440;11.126;2023-06-10T04:18:59;13.16;85.13
71096;DHT22;58753;49.440;11.126;2023-06-10T04:21:26;13.19;85.12
71096;DHT22;58753;49.440;11.126;2023-06-10T04:23:51;13.24;85.11
71096;DHT22;58753;49.440;11.126;2023-06-10T04:26:17;13.27;85.02
71096;DHT22;58753;49.440;11.126;2023-06-10T04:28:43;13.39;85.17
71096;DHT22;58753;49.440;11.126;2023-06-10T04:31:09;13.43;85.29
71096;DHT22;58753;49.440;11.126;2023-06-10T04:33:35;13.53;85.43
71096;DHT22;58753;49.440;11.126;2023-06-10T04:36:00;13.60;85.38
71096;DHT22;58753;49.440;11.126;2023-06-10T04:38:26;13.73;85.27
71096;DHT22;58753;49.440;11.126;2023-06-10T04:40:51;13.80;85.19
71096;DHT22;58753;49.440;11.126;2023-06-10T04:43:17;13.89;84.96
71096;DHT22;58753;49.440;11.126;2023-06-10T04:45:42;13.94;85.00
71096;DHT22;58753;49.440;11.126;2023-06-10T04:48:10;14.04;84.84
71096;DHT22;58753;49.440;11.126;2023-06-10T04:50:36;14.11;84.64
71096;DHT22;58753;49.440;11.126;2023-06-10T04:53:01;14.17;84.56
71096;DHT22;58753;49.440;11.126;2023-06-10T04:55:26;14.25;84.35
71096;DHT22;58753;49.440;11.126;2023-06-10T04:57:52;14.29;84.14
71096;DHT22;58753;49.440;11.126;2023-06-10T05:00:17;14.36;84.13
71096;DHT22;58753;49.440;11.126;2023-06-10T05:02:43;14.43;83.98
71096;DHT22;58753;49.440;11.126;2023-06-10T05:05:10;14.46;83.66
71096;DHT22;58753;49.440;11.126;2023-06-10T05:07:35;14.55;83.62
71096;DHT22;58753;49.440;11.126;2023-06-10T05:10:01;14.62;83.37
71096;DHT22;58753;49.440;11.126;2023-06-10T05:12:26;14.66;83.28
71096;DHT22;58753;49.440;11.126;2023-06-10T05:14:52;14.73;83.19
71096;DHT22;58753;49.440;11.126;2023-06-10T05:17:17;14.82;83.04
71096;DHT22;58753;49.440;11.126;2023-06-10T05:19:43;14.90;82.78
71096;DHT22;58753;49.440;11.126;2023-06-10T05:22:09;14.97;82.65
71096;DHT22;58753;49.440;11.126;2023-06-10T05:24:35;15.10;82.42
71096;DHT22;58753;49.440;11.126;2023-06-10T05:27:00;15.19;82.20
71096;DHT22;58753;49.440;11.126;2023-06-10T05:29:25;15.31;82.11
71096;DHT22;58753;49.440;11.126;2023-06-10T05:31:51;15.44;82.02
71096;DHT22;58753;49.440;11.126;2023-06-10T05:34:16;15.58;81.81
71096;DHT22;58753;49.440;11.126;2023-06-10T05:36:42;15.64;81.44
71096;DHT22;58753;49.440;11.126;2023-06-10T05:39:09;15.77;81.21
71096;DHT22;58753;49.440;11.126;2023-06-10T05:41:34;15.84;80.86
71096;DHT22;58753;49.440;11.126;2023-06-10T05:44:00;15.98;80.75
71096;DHT22;58753;49.440;11.126;2023-06-10T05:46:25;16.12;80.59
71096;DHT22;58753;49.440;11.126;2023-06-10T05:48:51;16.23;80.17
71096;DHT22;58753;49.440;11.126;2023-06-10T05:51:16;16.34;79.82
71096;DHT22;58753;49.440;11.126;2023-06-10T05:53:41;16.43;79.52
71096;DHT22;58753;49.440;11.126;2023-06-10T05:56:07;16.50;79.20
71096;DHT22;58753;49.440;11.126;2023-06-10T05:58:32;16.56;78.96
71096;DHT22;58753;49.440;11.126;2023-06-10T06:00:57;16.66;78.84
71096;DHT22;58753;49.440;11.126;2023-06-10T06:03:23;16.71;78.54
71096;DHT22;58753;49.440;11.126;2023-06-10T06:05:48;16.79;78.37
71096;DHT22;58753;49.440;11.126;2023-06-10T06:08:14;16.90;78.25
71096;DHT22;58753;49.440;11.126;2023-06-10T06:10:42;16.95;78.08
71096;DHT22;58753;49.440;11.126;2023-06-10T06:13:08;17.03;77.72
71096;DHT22;58753;49.440;11.126;2023-06-10T06:15:33;17.11;77.46
71096;DHT22;58753;49.440;11.126;2023-06-10T06:17:58;17.18;77.17
71096;DHT22;58753;49.440;11.126;2023-06-10T06:20:24;17.24;77.02
71096;DHT22;58753;49.440;11.126;2023-06-10T06:22:49;17.31;76.84
71096;DHT22;58753;49.440;11.126;2023-06-10T06:25:15;17.39;76.69
71096;DHT22;58753;49.440;11.126;2023-06-10T06:27:40;17.52;76.59
71096;DHT22;58753;49.440;11.126;2023-06-10T06:30:06;17.55;76.40
71096;DHT22;58753;49.440;11.126;2023-06-10T06:32:32;17.66;76.16
71096;DHT22;58753;49.440;11.126;2023-06-10T06:34:57;17.71;75.99
71096;DHT22;58753;49.440;11.126;2023-06-10T06:37:24;17.76;75.76
71096;DHT22;58753;49.440;11.126;2023-06-10T06:39:53;17.86;75.59
71096;DHT22;58753;49.440;11.126;2023-06-10T06:42:19;17.96;75.41
71096;DHT22;58753;49.440;11.126;2023-06-10T06:44:48;18.05;75.23
71096;DHT22;58753;49.440;11.126;2023-06-10T06:47:14;18.10;74.58
71096;DHT22;58753;49.440;11.126;2023-06-10T06:49:39;18.22;74.29
71096;DHT22;58753;49.440;11.126;2023-06-10T06:52:05;18.32;73.71
71096;DHT22;58753;49.440;11.126;2023-06-10T06:54:31;18.40;73.33
71096;DHT22;58753;49.440;11.126;2023-06-10T06:56:56;18.46;72.90
71096;DHT22;58753;49.440;11.126;2023-06-10T06:59:22;18.56;72.52
71096;DHT22;58753;49.440;11.126;2023-06-10T07:01:47;18.61;72.27
71096;DHT22;58753;49.440;11.126;2023-06-10T07:04:14;18.68;72.06
71096;DHT22;58753;49.440;11.126;2023-06-10T07:06:40;18.72;71.54
71096;DHT22;58753;49.440;11.126;2023-06-10T07:09:05;18.78;71.27
71096;DHT22;58753;49.440;11.126;2023-06-10T07:11:31;18.80;70.87
71096;DHT22;58753;49.440;11.126;2023-06-10T07:13:57;18.88;70.79
71096;DHT22;58753;49.440;11.126;2023-06-10T07:16:22;18.97;70.67
71096;DHT22;58753;49.440;11.126;2023-06-10T07:18:48;19.04;70.55
71096;DHT22;58753;49.440;11.126;2023-06-10T07:21:13;19.16;70.61
71096;DHT22;58753;49.440;11.126;2023-06-10T07:23:42;19.32;70.27
71096;DHT22;58753;49.440;11.126;2023-06-10T07:26:07;19.43;70.02
71096;DHT22;58753;49.440;11.126;2023-06-10T07:28:36;19.52;69.55
71096;DHT22;58753;49.440;11.126;2023-06-10T07:31:01;19.59;69.19
71096;DHT22;58753;49.440;11.126;2023-06-10T07:33:27;19.58;68.75
71096;DHT22;58753;49.440;11.126;2023-06-10T07:35:52;19.58;68.36
71096;DHT22;58753;49.440;11.126;2023-06-10T07:38:18;19.65;68.33
71096;DHT22;58753;49.440;11.126;2023-06-10T07:40:43;19.74;68.18
71096;DHT22;58753;49.440;11.126;2023-06-10T07:43:08;19.83;68.12
71096;DHT22;58753;49.440;11.126;2023-06-10T07:45:34;19.90;68.01
71096;DHT22;58753;49.440;11.126;2023-06-10T07:47:59;20.04;67.97
71096;DHT22;58753;49.440;11.126;2023-06-10T07:50:24;20.17;67.36
71096;DHT22;58753;49.440;11.126;2023-06-10T07:52:50;20.24;66.87
71096;DHT22;58753;49.440;11.126;2023-06-10T07:55:15;20.24;66.54
71096;DHT22;58753;49.440;11.126;2023-06-10T07:57:41;20.21;66.05
71096;DHT22;58753;49.440;11.126;2023-06-10T08:00:08;20.21;65.88
71096;DHT22;58753;49.440;11.126;2023-06-10T08:02:34;20.27;65.66
71096;DHT22;58753;49.440;11.126;2023-06-10T08:04:59;20.36;65.51
71096;DHT22;58753;49.440;11.126;2023-06-10T08:07:24;20.44;65.31
71096;DHT22;58753;49.440;11.126;2023-06-10T08:09:50;20.54;64.98
71096;DHT22;58753;49.440;11.126;2023-06-10T08:12:16;20.61;64.76
71096;DHT22;58753;49.440;11.126;2023-06-10T08:14:41;20.63;64.48
71096;DHT22;58753;49.440;11.126;2023-06-10T08:17:07;20.65;64.07
71096;DHT22;58753;49.440;11.126;2023-06-10T08:19:32;20.75;63.89
71096;DHT22;58753;49.440;11.126;2023-06-10T08:21:58;20.84;63.58
71096;DHT22;58753;49.440;11.126;2023-06-10T08:24:23;20.85;63.25
71096;DHT22;58753;49.440;11.126;2023-06-10T08:26:48;20.91;62.89
71096;DHT22;58753;49.440;11.126;2023-06-10T08:29:14;20.94;62.47
71096;DHT22;58753;49.440;11.126;2023-06-10T08:31:43;21.02;62.02
71096;DHT22;58753;49.440;11.126;2023-06-10T08:34:09;21.06;61.47
71096;DHT22;58753;49.440;11.126;2023-06-10T08:36:34;21.09;61.10
71096;DHT22;58753;49.440;11.126;2023-06-10T08:39:01;21.13;60.81
71096;DHT22;58753;49.440;11.126;2023-06-10T08:41:28;21.19;60.70
71096;DHT22;58753;49.440;11.126;2023-06-10T08:44:14;21.28;60.43
71096;DHT22;58753;49.440;11.126;2023-06-10T08:46:45;21.39;60.26
71096;DHT22;58753;49.440;11.126;2023-06-10T08:49:14;21.49;60.14
71096;DHT22;58753;49.440;11.126;2023-06-10T08:51:41;21.50;59.62
71096;DHT22;58753;49.440;11.126;2023-06-10T08:54:34;21.60;59.52
71096;DHT22;58753;49.440;11.126;2023-06-10T08:57:03;21.73;59.04
71096;DHT22;58753;49.440;11.126;2023-06-10T08:59:31;21.83;58.70
71096;DHT22;58753;49.440;11.126;2023-06-10T09:01:57;21.91;58.33
71096;DHT22;58753;49.440;11.126;2023-06-10T09:04:24;21.91;57.73
71096;DHT22;58753;49.440;11.126;2023-06-10T09:06:50;21.97;57.85
71096;DHT22;58753;49.440;11.126;2023-06-10T09:09:16;22.04;57.81
71096;DHT22;58753;49.440;11.126;2023-06-10T09:11:44;22.10;57.90
71096;DHT22;58753;49.440;11.126;2023-06-10T09:14:10;22.10;57.79
71096;DHT22;58753;49.440;11.126;2023-06-10T09:16:38;22.21;57.87
71096;DHT22;58753;49.440;11.126;2023-06-10T09:19:03;22.22;57.71
71096;DHT22;58753;49.440;11.126;2023-06-10T09:21:33;22.28;57.87
71096;DHT22;58753;49.440;11.126;2023-06-10T09:23:58;22.25;57.61
71096;DHT22;58753;49.440;11.126;2023-06-10T09:26:28;22.25;57.28
71096;DHT22;58753;49.440;11.126;2023-06-10T09:28:58;22.30;57.25
71096;DHT22;58753;49.440;11.126;2023-06-10T09:31:27;22.35;56.88
71096;DHT22;58753;49.440;11.126;2023-06-10T09:33:53;22.49;57.13
71096;DHT22;58753;49.440;11.126;2023-06-10T09:36:22;22.59;56.41
71096;DHT22;58753;49.440;11.126;2023-06-10T09:38:49;22.52;56.18
71096;DHT22;58753;49.440;11.126;2023-06-10T09:41:16;22.66;56.60
71096;DHT22;58753;49.440;11.126;2023-06-10T09:43:45;22.58;56.39
71096;DHT22;58753;49.440;11.126;2023-06-10T09:46:15;22.78;56.85
71096;DHT22;58753;49.440;11.126;2023-06-10T09:48:43;22.84;56.46
71096;DHT22;58753;49.440;11.126;2023-06-10T09:51:09;22.91;56.57
71096;DHT22;58753;49.440;11.126;2023-06-10T09:53:36;22.86;56.11
71096;DHT22;58753;49.440;11.126;2023-06-10T09:56:02;22.78;56.00
71096;DHT22;58753;49.440;11.126;2023-06-10T09:58:38;22.76;56.11
71096;DHT22;58753;49.440;11.126;2023-06-10T10:01:09;22.79;55.76
71096;DHT22;58753;49.440;11.126;2023-06-10T10:03:49;22.78;55.49
71096;DHT22;58753;49.440;11.126;2023-06-10T10:06:17;22.78;55.58
71096;DHT22;58753;49.440;11.126;2023-06-10T10:08:43;22.75;55.42
71096;DHT22;58753;49.440;11.126;2023-06-10T10:11:09;22.88;55.91
71096;DHT22;58753;49.440;11.126;2023-06-10T10:13:35;22.84;55.25
71096;DHT22;58753;49.440;11.126;2023-06-10T10:16:09;22.92;55.90
71096;DHT22;58753;49.440;11.126;2023-06-10T10:18:39;22.84;55.28
71096;DHT22;58753;49.440;11.126;2023-06-10T10:21:07;22.91;55.38
71096;DHT22;58753;49.440;11.126;2023-06-10T10:23:40;22.88;55.34
71096;DHT22;58753;49.440;11.126;2023-06-10T10:26:10;22.79;54.95
71096;DHT22;58753;49.440;11.126;2023-06-10T10:28:44;22.79;55.16
71096;DHT22;58753;49.440;11.126;2023-06-10T10:31:12;22.75;55.27
71096;DHT22;58753;49.440;11.126;2023-06-10T10:33:48;22.96;55.95
71096;DHT22;58753;49.440;11.126;2023-06-10T10:36:18;23.17;55.62
71096;DHT22;58753;49.440;11.126;2023-06-10T10:38:45;23.33;55.11
71096;DHT22;58753;49.440;11.126;2023-06-10T10:41:12;23.34;54.21
71096;DHT22;58753;49.440;11.126;2023-06-10T10:43:38;23.29;54.12
71096;DHT22;58753;49.440;11.126;2023-06-10T10:46:12;23.22;54.15
71096;DHT22;58753;49.440;11.126;2023-06-10T10:48:39;23.13;54.00
71096;DHT22;58753;49.440;11.126;2023-06-10T10:51:06;23.06;54.22
71096;DHT22;58753;49.440;11.126;2023-06-10T10:53:32;23.05;54.33
71096;DHT22;58753;49.440;11.126;2023-06-10T10:56:04;23.00;54.47
71096;DHT22;58753;49.440;11.126;2023-06-10T10:58:30;23.02;54.72
71096;DHT22;58753;49.440;11.126;2023-06-10T11:00:57;23.02;54.96
71096;DHT22;58753;49.440;11.126;2023-06-10T11:03:28;23.06;55.32
71096;DHT22;58753;49.440;11.126;2023-06-10T11:05:57;23.12;55.44
71096;DHT22;58753;49.440;11.126;2023-06-10T11:08:45;23.16;55.89
71096;DHT22;58753;49.440;11.126;2023-06-10T11:11:24;23.43;55.94
71096;DHT22;58753;49.440;11.126;2023-06-10T11:16:41;23.51;54.79
71096;DHT22;58753;49.440;11.126;2023-06-10T11:19:07;23.51;54.85
71096;DHT22;58753;49.440;11.126;2023-06-10T11:21:58;23.50;55.03
71096;DHT22;58753;49.440;11.126;2023-06-10T11:24:23;23.39;54.79
71096;DHT22;58753;49.440;11.126;2023-06-10T11:26:48;23.30;54.04
71096;DHT22;58753;49.440;11.126;2023-06-10T11:29:14;23.59;55.11
71096;DHT22;58753;49.440;11.126;2023-06-10T11:31:41;23.63;54.02
71096;DHT22;58753;49.440;11.126;2023-06-10T11:34:08;23.64;53.52
71096;DHT22;58753;49.440;11.126;2023-06-10T11:36:37;23.78;53.72
71096;DHT22;58753;49.440;11.126;2023-06-10T11:39:06;23.82;52.51
71096;DHT22;58753;49.440;11.126;2023-06-10T11:41:32;24.14;53.21
71096;DHT22;58753;49.440;11.126;2023-06-10T11:44:10;24.15;52.06
71096;DHT22;58753;49.440;11.126;2023-06-10T11:46:36;24.00;51.88
71096;DHT22;58753;49.440;11.126;2023-06-10T11:49:02;23.88;52.13
71096;DHT22;58753;49.440;11.126;2023-06-10T11:51:30;23.81;52.40
71096;DHT22;58753;49.440;11.126;2023-06-10T11:53:55;23.80;52.79
71096;DHT22;58753;49.440;11.126;2023-06-10T11:56:29;23.81;52.99
71096;DHT22;58753;49.440;11.126;2023-06-10T11:58:59;23.93;53.13
71096;DHT22;58753;49.440;11.126;2023-06-10T12:01:29;24.02;53.48
71096;DHT22;58753;49.440;11.126;2023-06-10T12:06:23;24.53;54.05
71096;DHT22;58753;49.440;11.126;2023-06-10T12:08:49;24.87;53.04
71096;DHT22;58753;49.440;11.126;2023-06-10T12:11:14;25.13;51.65
71096;DHT22;58753;49.440;11.126;2023-06-10T12:13:46;25.40;50.87
71096;DHT22;58753;49.440;11.126;2023-06-10T12:16:15;25.48;49.08
71096;DHT22;58753;49.440;11.126;2023-06-10T12:18:43;25.28;48.24
71096;DHT22;58753;49.440;11.126;2023-06-10T12:21:16;24.93;48.30
71096;DHT22;58753;49.440;11.126;2023-06-10T12:24:00;24.79;49.72
71096;DHT22;58753;49.440;11.126;2023-06-10T12:26:40;25.34;50.90
71096;DHT22;58753;49.440;11.126;2023-06-10T12:32:01;26.12;49.98
71096;DHT22;58753;49.440;11.126;2023-06-10T12:34:35;26.28;48.75
71096;DHT22;58753;49.440;11.126;2023-06-10T12:37:02;26.45;48.11
71096;DHT22;58753;49.440;11.126;2023-06-10T12:39:29;26.52;46.68
71096;DHT22;58753;49.440;11.126;2023-06-10T12:41:55;26.08;46.67
71096;DHT22;58753;49.440;11.126;2023-06-10T12:44:31;25.67;46.79
71096;DHT22;58753;49.440;11.126;2023-06-10T12:46:56;25.34;47.36
71096;DHT22;58753;49.440;11.126;2023-06-10T12:49:22;25.12;47.88
71096;DHT22;58753;49.440;11.126;2023-06-10T12:51:47;25.03;48.60
71096;DHT22;58753;49.440;11.126;2023-06-10T12:54:13;25.02;48.97
71096;DHT22;58753;49.440;11.126;2023-06-10T12:56:38;25.46;49.48
71096;DHT22;58753;49.440;11.126;2023-06-10T12:59:04;25.51;48.55
71096;DHT22;58753;49.440;11.126;2023-06-10T13:01:29;25.77;49.48
71096;DHT22;58753;49.440;11.126;2023-06-10T13:03:56;26.18;48.60
71096;DHT22;58753;49.440;11.126;2023-06-10T13:06:22;26.70;48.65
71096;DHT22;58753;49.440;11.126;2023-06-10T13:08:47;26.83;46.74
71096;DHT22;58753;49.440;11.126;2023-06-10T13:11:13;26.46;45.62
71096;DHT22;58753;49.440;11.126;2023-06-10T13:13:38;26.19;45.86
71096;DHT22;58753;49.440;11.126;2023-06-10T13:16:04;25.94;46.05
71096;DHT22;58753;49.440;11.126;2023-06-10T13:18:30;25.73;46.38
71096;DHT22;58753;49.440;11.126;2023-06-10T13:21:11;25.89;47.96
71096;DHT22;58753;49.440;11.126;2023-06-10T13:23:36;26.38;47.69
71096;DHT22;58753;49.440;11.126;2023-06-10T13:26:02;26.78;46.79
71096;DHT22;58753;49.440;11.126;2023-06-10T13:28:28;27.20;45.98
71096;DHT22;58753;49.440;11.126;2023-06-10T13:30:53;27.59;45.22
71096;DHT22;58753;49.440;11.126;2023-06-10T13:33:19;27.59;44.10
71096;DHT22;58753;49.440;11.126;2023-06-10T13:35:44;27.51;43.30
71096;DHT22;58753;49.440;11.126;2023-06-10T13:38:09;26.99;42.95
71096;DHT22;58753;49.440;11.126;2023-06-10T13:40:35;26.60;43.25
71096;DHT22;58753;49.440;11.126;2023-06-10T13:43:00;26.35;43.41
71096;DHT22;58753;49.440;11.126;2023-06-10T13:45:26;26.12;43.25
71096;DHT22;58753;49.440;11.126;2023-06-10T13:47:51;25.94;43.48
71096;DHT22;58753;49.440;11.126;2023-06-10T13:50:17;26.33;45.01
71096;DHT22;58753;49.440;11.126;2023-06-10T13:52:42;26.24;43.73
71096;DHT22;58753;49.440;11.126;2023-06-10T13:55:08;26.15;44.41
71096;DHT22;58753;49.440;11.126;2023-06-10T13:57:33;26.63;45.12
71096;DHT22;58753;49.440;11.126;2023-06-10T13:59:59;27.00;43.80
71096;DHT22;58753;49.440;11.126;2023-06-10T14:02:24;27.20;42.52
71096;DHT22;58753;49.440;11.126;2023-06-10T14:04:50;27.38;42.20
71096;DHT22;58753;49.440;11.126;2023-06-10T14:07:15;27.01;41.94
71096;DHT22;58753;49.440;11.126;2023-06-10T14:09:41;26.62;42.76
71096;DHT22;58753;49.440;11.126;2023-06-10T14:12:07;26.21;43.22
71096;DHT22;58753;49.440;11.126;2023-06-10T14:14:32;25.84;43.90
71096;DHT22;58753;49.440;11.126;2023-06-10T14:16:58;25.58;44.52
71096;DHT22;58753;49.440;11.126;2023-06-10T14:19:24;25.36;45.06
71096;DHT22;58753;49.440;11.126;2023-06-10T14:21:49;25.22;45.80
71096;DHT22;58753;49.440;11.126;2023-06-10T14:24:14;25.10;46.33
71096;DHT22;58753;49.440;11.126;2023-06-10T14:26:40;25.12;47.00
71096;DHT22;58753;49.440;11.126;2023-06-10T14:29:05;25.07;47.08
71096;DHT22;58753;49.440;11.126;2023-06-10T14:31:32;25.63;49.03
71096;DHT22;58753;49.440;11.126;2023-06-10T14:33:58;26.19;47.67
71096;DHT22;58753;49.440;11.126;2023-06-10T14:36:23;26.46;46.20
71096;DHT22;58753;49.440;11.126;2023-06-10T14:38:48;26.92;46.75
71096;DHT22;58753;49.440;11.126;2023-06-10T14:41:14;27.30;45.89
71096;DHT22;58753;49.440;11.126;2023-06-10T14:43:39;27.34;45.03
71096;DHT22;58753;49.440;11.126;2023-06-10T14:46:05;27.68;44.99
71096;DHT22;58753;49.440;11.126;2023-06-10T14:48:30;27.58;43.84
71096;DHT22;58753;49.440;11.126;2023-06-10T14:50:55;27.54;42.99
71096;DHT22;58753;49.440;11.126;2023-06-10T14:53:21;27.01;42.40
71096;DHT22;58753;49.440;11.126;2023-06-10T14:55:46;26.69;43.54
71096;DHT22;58753;49.440;11.126;2023-06-10T14:58:12;26.46;44.23
71096;DHT22;58753;49.440;11.126;2023-06-10T15:00:37;26.46;44.23
71096;DHT22;58753;49.440;11.126;2023-06-10T15:03:02;26.40;44.95
71096;DHT22;58753;49.440;11.126;2023-06-10T15:05:28;26.29;45.25
71096;DHT22;58753;49.440;11.126;2023-06-10T15:07:53;26.04;45.66
71096;DHT22;58753;49.440;11.126;2023-06-10T15:10:19;25.81;46.35
71096;DHT22;58753;49.440;11.126;2023-06-10T15:12:46;25.68;47.19
71096;DHT22;58753;49.440;11.126;2023-06-10T15:15:12;25.53;47.53
71096;DHT22;58753;49.440;11.126;2023-06-10T15:17:37;25.44;48.25
71096;DHT22;58753;49.440;11.126;2023-06-10T15:20:03;25.37;49.02
71096;DHT22;58753;49.440;11.126;2023-06-10T15:22:29;25.64;49.95
71096;DHT22;58753;49.440;11.126;2023-06-10T15:24:54;25.43;49.84
71096;DHT22;58753;49.440;11.126;2023-06-10T15:27:20;25.36;50.17